Federal, Argentina
Current Conditions -  °F | °C
As of 7:00 AM on Tuesday 27 Jan 2015 (Local Time) from SARL Reporting Station
Clear Clear  
Wind Chill: 77°   Ceiling: Unl
Heat Index: 78°   Visibility: 5mi
Dew Point: 75°   Wind: 3mph
Humidity: 94%   Direction: 50°NE
Pressure: 29.8"   Gusts: NA
Location:  30.95°S, 58.8°W
Report Text: SARL 271000Z 05003KT 8000 NSC 25/24 Q1009
Loading
Personal Weather Stations






























Interactive Weather Map New forecast layout! Learn more

10-Day Weather Forecast

Advertisements
Track Severe Weather on mobile